sensor_id;sensor_type;location;lat;lon;timestamp;temperature;humidity
10089;DHT22;51898;49.864;8.550;2022-10-29T00:01:07;15.80;99.90
10089;DHT22;51898;49.864;8.550;2022-10-29T00:04:09;15.90;99.90
10089;DHT22;51898;49.864;8.550;2022-10-29T00:07:11;15.90;99.90
10089;DHT22;51898;49.864;8.550;2022-10-29T00:10:13;15.90;99.90
10089;DHT22;51898;49.864;8.550;2022-10-29T00:13:15;15.90;99.90
10089;DHT22;51898;49.864;8.550;2022-10-29T00:16:21;15.90;99.90
10089;DHT22;51898;49.864;8.550;2022-10-29T00:19:23;15.90;99.90
10089;DHT22;51898;49.864;8.550;2022-10-29T00:22:25;16.00;99.90
10089;DHT22;51898;49.864;8.550;2022-10-29T00:25:26;16.00;99.90
10089;DHT22;51898;49.864;8.550;2022-10-29T00:28:28;15.90;99.90
10089;DHT22;51898;49.864;8.550;2022-10-29T00:31:30;15.90;99.90
10089;DHT22;51898;49.864;8.550;2022-10-29T00:34:32;15.90;99.90
10089;DHT22;51898;49.864;8.550;2022-10-29T00:37:34;15.90;99.90
10089;DHT22;51898;49.864;8.550;2022-10-29T00:40:37;15.90;99.90
10089;DHT22;51898;49.864;8.550;2022-10-29T00:43:44;15.90;99.90
10089;DHT22;51898;49.864;8.550;2022-10-29T00:50:11;15.90;99.90
10089;DHT22;51898;49.864;8.550;2022-10-29T00:53:21;15.80;99.90
10089;DHT22;51898;49.864;8.550;2022-10-29T00:56:25;15.80;99.90
10089;DHT22;51898;49.864;8.550;2022-10-29T00:59:27;15.80;99.90
10089;DHT22;51898;49.864;8.550;2022-10-29T01:02:30;15.80;99.90
10089;DHT22;51898;49.864;8.550;2022-10-29T01:05:34;15.80;99.90
10089;DHT22;51898;49.864;8.550;2022-10-29T01:08:36;15.70;99.90
10089;DHT22;51898;49.864;8.550;2022-10-29T01:12:19;15.60;99.90
10089;DHT22;51898;49.864;8.550;2022-10-29T01:22:10;15.50;99.90
10089;DHT22;51898;49.864;8.550;2022-10-29T01:32:11;15.30;99.90
10089;DHT22;51898;49.864;8.550;2022-10-29T01:35:18;15.20;99.90
10089;DHT22;51898;49.864;8.550;2022-10-29T01:38:37;15.20;99.90
10089;DHT22;51898;49.864;8.550;2022-10-29T01:45:20;15.10;99.90
10089;DHT22;51898;49.864;8.550;2022-10-29T01:48:29;15.00;99.90
10089;DHT22;51898;49.864;8.550;2022-10-29T01:51:34;15.00;99.90
10089;DHT22;51898;49.864;8.550;2022-10-29T01:54:44;15.00;99.90
10089;DHT22;51898;49.864;8.550;2022-10-29T01:57:46;15.00;99.90
10089;DHT22;51898;49.864;8.550;2022-10-29T02:04:59;15.00;99.90
10089;DHT22;51898;49.864;8.550;2022-10-29T02:11:47;14.80;99.90
10089;DHT22;51898;49.864;8.550;2022-10-29T02:14:55;14.80;99.90
10089;DHT22;51898;49.864;8.550;2022-10-29T02:17:59;14.70;99.90
10089;DHT22;51898;49.864;8.550;2022-10-29T02:21:01;14.70;99.90
10089;DHT22;51898;49.864;8.550;2022-10-29T02:24:03;14.70;99.90
10089;DHT22;51898;49.864;8.550;2022-10-29T02:27:05;14.60;99.90
10089;DHT22;51898;49.864;8.550;2022-10-29T02:30:08;14.60;99.90
10089;DHT22;51898;49.864;8.550;2022-10-29T02:33:10;14.60;99.90
10089;DHT22;51898;49.864;8.550;2022-10-29T02:36:12;14.50;99.90
10089;DHT22;51898;49.864;8.550;2022-10-29T02:39:14;14.50;99.90
10089;DHT22;51898;49.864;8.550;2022-10-29T02:42:16;14.40;99.90
10089;DHT22;51898;49.864;8.550;2022-10-29T02:45:17;14.40;99.90
10089;DHT22;51898;49.864;8.550;2022-10-29T02:48:19;14.40;99.90
10089;DHT22;51898;49.864;8.550;2022-10-29T02:51:21;14.40;99.90
10089;DHT22;51898;49.864;8.550;2022-10-29T02:54:22;14.40;99.90
10089;DHT22;51898;49.864;8.550;2022-10-29T02:57:24;14.50;99.90
10089;DHT22;51898;49.864;8.550;2022-10-29T03:00:26;14.50;99.90
10089;DHT22;51898;49.864;8.550;2022-10-29T03:03:28;14.50;99.90
10089;DHT22;51898;49.864;8.550;2022-10-29T03:06:29;14.50;99.90
10089;DHT22;51898;49.864;8.550;2022-10-29T03:09:31;14.40;99.90
10089;DHT22;51898;49.864;8.550;2022-10-29T03:12:33;14.50;99.90
10089;DHT22;51898;49.864;8.550;2022-10-29T03:15:35;14.40;99.90
10089;DHT22;51898;49.864;8.550;2022-10-29T03:18:38;14.40;99.90
10089;DHT22;51898;49.864;8.550;2022-10-29T03:21:40;14.40;99.90
10089;DHT22;51898;49.864;8.550;2022-10-29T03:24:42;14.30;99.90
10089;DHT22;51898;49.864;8.550;2022-10-29T03:27:44;14.20;99.90
10089;DHT22;51898;49.864;8.550;2022-10-29T03:30:46;14.10;99.90
10089;DHT22;51898;49.864;8.550;2022-10-29T03:33:48;14.10;99.90
10089;DHT22;51898;49.864;8.550;2022-10-29T03:36:50;14.00;99.90
10089;DHT22;51898;49.864;8.550;2022-10-29T03:39:51;13.90;99.90
10089;DHT22;51898;49.864;8.550;2022-10-29T03:42:53;13.80;99.90
10089;DHT22;51898;49.864;8.550;2022-10-29T03:45:56;13.70;99.90
10089;DHT22;51898;49.864;8.550;2022-10-29T03:48:58;13.70;99.90
10089;DHT22;51898;49.864;8.550;2022-10-29T03:51:59;13.60;99.90
10089;DHT22;51898;49.864;8.550;2022-10-29T03:55:01;13.60;99.90
10089;DHT22;51898;49.864;8.550;2022-10-29T03:58:03;13.50;99.90
10089;DHT22;51898;49.864;8.550;2022-10-29T04:01:06;13.50;99.90
10089;DHT22;51898;49.864;8.550;2022-10-29T04:04:08;13.50;99.90
10089;DHT22;51898;49.864;8.550;2022-10-29T04:07:11;13.50;99.90
10089;DHT22;51898;49.864;8.550;2022-10-29T04:10:13;13.50;99.90
10089;DHT22;51898;49.864;8.550;2022-10-29T04:13:14;13.40;99.90
10089;DHT22;51898;49.864;8.550;2022-10-29T04:16:16;13.40;99.90
10089;DHT22;51898;49.864;8.550;2022-10-29T04:19:18;13.30;99.90
10089;DHT22;51898;49.864;8.550;2022-10-29T04:22:19;13.30;99.90
10089;DHT22;51898;49.864;8.550;2022-10-29T04:25:41;13.30;99.90
10089;DHT22;51898;49.864;8.550;2022-10-29T04:29:02;13.40;99.90
10089;DHT22;51898;49.864;8.550;2022-10-29T04:32:04;13.50;99.90
10089;DHT22;51898;49.864;8.550;2022-10-29T04:35:06;13.50;99.90
10089;DHT22;51898;49.864;8.550;2022-10-29T04:38:11;13.50;99.90
10089;DHT22;51898;49.864;8.550;2022-10-29T04:41:13;13.50;99.90
10089;DHT22;51898;49.864;8.550;2022-10-29T04:44:14;13.60;99.90
10089;DHT22;51898;49.864;8.550;2022-10-29T04:47:16;13.70;99.90
10089;DHT22;51898;49.864;8.550;2022-10-29T04:50:18;13.70;99.90
10089;DHT22;51898;49.864;8.550;2022-10-29T04:53:22;13.70;99.90
10089;DHT22;51898;49.864;8.550;2022-10-29T04:56:23;13.80;99.90
10089;DHT22;51898;49.864;8.550;2022-10-29T04:59:25;13.80;99.90
10089;DHT22;51898;49.864;8.550;2022-10-29T05:02:27;13.90;99.90
10089;DHT22;51898;49.864;8.550;2022-10-29T05:05:28;13.90;99.90
10089;DHT22;51898;49.864;8.550;2022-10-29T05:08:30;14.00;99.90
10089;DHT22;51898;49.864;8.550;2022-10-29T05:11:32;14.00;99.90
10089;DHT22;51898;49.864;8.550;2022-10-29T05:14:36;14.00;99.90
10089;DHT22;51898;49.864;8.550;2022-10-29T05:17:38;14.00;99.90
10089;DHT22;51898;49.864;8.550;2022-10-29T05:20:39;13.90;99.90
10089;DHT22;51898;49.864;8.550;2022-10-29T05:23:41;14.00;99.90
10089;DHT22;51898;49.864;8.550;2022-10-29T05:26:43;13.90;99.90
10089;DHT22;51898;49.864;8.550;2022-10-29T05:29:44;13.90;99.90
10089;DHT22;51898;49.864;8.550;2022-10-29T05:32:46;14.00;99.90
10089;DHT22;51898;49.864;8.550;2022-10-29T05:35:48;13.90;99.90
10089;DHT22;51898;49.864;8.550;2022-10-29T05:38:50;13.80;99.90
10089;DHT22;51898;49.864;8.550;2022-10-29T05:41:51;13.70;99.90
10089;DHT22;51898;49.864;8.550;2022-10-29T05:44:53;13.80;99.90
10089;DHT22;51898;49.864;8.550;2022-10-29T05:47:59;13.80;99.90
10089;DHT22;51898;49.864;8.550;2022-10-29T05:51:01;13.80;99.90
10089;DHT22;51898;49.864;8.550;2022-10-29T05:54:03;13.80;99.90
10089;DHT22;51898;49.864;8.550;2022-10-29T05:57:04;13.90;99.90
10089;DHT22;51898;49.864;8.550;2022-10-29T06:00:07;13.90;99.90
10089;DHT22;51898;49.864;8.550;2022-10-29T06:03:17;13.90;99.90
10089;DHT22;51898;49.864;8.550;2022-10-29T06:06:19;13.90;99.90
10089;DHT22;51898;49.864;8.550;2022-10-29T06:09:20;13.80;99.90
10089;DHT22;51898;49.864;8.550;2022-10-29T06:12:22;13.90;99.90
10089;DHT22;51898;49.864;8.550;2022-10-29T06:15:24;13.90;99.90
10089;DHT22;51898;49.864;8.550;2022-10-29T06:18:26;13.90;99.90
10089;DHT22;51898;49.864;8.550;2022-10-29T06:21:28;13.90;99.90
10089;DHT22;51898;49.864;8.550;2022-10-29T06:24:30;13.90;99.90
10089;DHT22;51898;49.864;8.550;2022-10-29T06:27:31;13.90;99.90
10089;DHT22;51898;49.864;8.550;2022-10-29T06:30:34;13.90;99.90
10089;DHT22;51898;49.864;8.550;2022-10-29T06:33:36;14.00;99.90
10089;DHT22;51898;49.864;8.550;2022-10-29T06:36:38;14.00;99.90
10089;DHT22;51898;49.864;8.550;2022-10-29T06:39:39;14.00;99.90
10089;DHT22;51898;49.864;8.550;2022-10-29T06:42:42;14.00;99.90
10089;DHT22;51898;49.864;8.550;2022-10-29T06:45:44;14.00;99.90
10089;DHT22;51898;49.864;8.550;2022-10-29T06:48:46;14.00;99.90
10089;DHT22;51898;49.864;8.550;2022-10-29T06:51:47;14.00;99.90
10089;DHT22;51898;49.864;8.550;2022-10-29T06:54:49;14.00;99.90
10089;DHT22;51898;49.864;8.550;2022-10-29T06:58:11;14.10;99.90
10089;DHT22;51898;49.864;8.550;2022-10-29T07:01:13;14.20;99.90
10089;DHT22;51898;49.864;8.550;2022-10-29T07:04:15;14.20;99.90
10089;DHT22;51898;49.864;8.550;2022-10-29T07:07:18;14.20;99.90
10089;DHT22;51898;49.864;8.550;2022-10-29T07:10:20;14.30;99.90
10089;DHT22;51898;49.864;8.550;2022-10-29T07:13:22;14.20;99.90
10089;DHT22;51898;49.864;8.550;2022-10-29T07:16:23;14.20;99.90
10089;DHT22;51898;49.864;8.550;2022-10-29T07:19:25;14.30;99.90
10089;DHT22;51898;49.864;8.550;2022-10-29T07:22:27;14.20;99.90
10089;DHT22;51898;49.864;8.550;2022-10-29T07:25:36;14.20;99.90
10089;DHT22;51898;49.864;8.550;2022-10-29T07:28:38;14.30;99.90
10089;DHT22;51898;49.864;8.550;2022-10-29T07:31:39;14.40;99.90
10089;DHT22;51898;49.864;8.550;2022-10-29T07:34:41;14.50;99.90
10089;DHT22;51898;49.864;8.550;2022-10-29T07:37:42;14.60;99.90
10089;DHT22;51898;49.864;8.550;2022-10-29T07:40:48;14.70;99.90
10089;DHT22;51898;49.864;8.550;2022-10-29T07:43:50;14.80;99.90
10089;DHT22;51898;49.864;8.550;2022-10-29T07:46:52;14.90;99.90
10089;DHT22;51898;49.864;8.550;2022-10-29T07:49:53;15.00;99.90
10089;DHT22;51898;49.864;8.550;2022-10-29T07:52:57;15.00;99.90
10089;DHT22;51898;49.864;8.550;2022-10-29T07:55:59;15.20;99.90
10089;DHT22;51898;49.864;8.550;2022-10-29T07:59:01;15.30;99.90
10089;DHT22;51898;49.864;8.550;2022-10-29T08:02:02;15.50;99.90
10089;DHT22;51898;49.864;8.550;2022-10-29T08:05:04;15.60;99.90
10089;DHT22;51898;49.864;8.550;2022-10-29T08:08:06;15.70;99.90
10089;DHT22;51898;49.864;8.550;2022-10-29T08:11:08;15.80;99.90
10089;DHT22;51898;49.864;8.550;2022-10-29T08:14:10;15.90;99.90
10089;DHT22;51898;49.864;8.550;2022-10-29T08:17:13;15.90;99.90
10089;DHT22;51898;49.864;8.550;2022-10-29T08:20:15;16.00;99.90
10089;DHT22;51898;49.864;8.550;2022-10-29T08:23:17;15.90;99.90
10089;DHT22;51898;49.864;8.550;2022-10-29T08:26:19;16.00;99.90
10089;DHT22;51898;49.864;8.550;2022-10-29T08:29:20;16.00;99.90
10089;DHT22;51898;49.864;8.550;2022-10-29T08:32:22;16.00;99.90
10089;DHT22;51898;49.864;8.550;2022-10-29T08:35:24;16.00;99.90
10089;DHT22;51898;49.864;8.550;2022-10-29T08:38:25;16.10;99.90
10089;DHT22;51898;49.864;8.550;2022-10-29T08:51:41;16.50;99.90
10089;DHT22;51898;49.864;8.550;2022-10-29T08:54:57;16.60;99.90
10089;DHT22;51898;49.864;8.550;2022-10-29T08:58:16;16.60;99.90
10089;DHT22;51898;49.864;8.550;2022-10-29T09:01:21;16.70;99.90
10089;DHT22;51898;49.864;8.550;2022-10-29T09:04:26;16.80;99.90
10089;DHT22;51898;49.864;8.550;2022-10-29T09:10:54;16.90;99.90
10089;DHT22;51898;49.864;8.550;2022-10-29T09:14:02;17.00;99.90
10089;DHT22;51898;49.864;8.550;2022-10-29T09:27:22;17.20;99.90
10089;DHT22;51898;49.864;8.550;2022-10-29T09:30:29;17.20;99.90
10089;DHT22;51898;49.864;8.550;2022-10-29T09:33:31;17.30;99.90
10089;DHT22;51898;49.864;8.550;2022-10-29T09:36:33;17.30;99.90
10089;DHT22;51898;49.864;8.550;2022-10-29T09:39:38;17.30;99.90
10089;DHT22;51898;49.864;8.550;2022-10-29T09:42:43;17.40;99.90
10089;DHT22;51898;49.864;8.550;2022-10-29T09:52:42;17.60;99.90
10089;DHT22;51898;49.864;8.550;2022-10-29T09:55:46;17.70;99.90
10089;DHT22;51898;49.864;8.550;2022-10-29T09:59:02;17.70;99.90
10089;DHT22;51898;49.864;8.550;2022-10-29T10:05:36;17.90;99.90
10089;DHT22;51898;49.864;8.550;2022-10-29T10:09:05;18.00;99.90
10089;DHT22;51898;49.864;8.550;2022-10-29T10:12:06;18.10;99.90
10089;DHT22;51898;49.864;8.550;2022-10-29T10:18:25;18.60;99.90
10089;DHT22;51898;49.864;8.550;2022-10-29T10:21:31;18.90;99.90
10089;DHT22;51898;49.864;8.550;2022-10-29T10:24:35;19.10;99.90
10089;DHT22;51898;49.864;8.550;2022-10-29T10:27:37;19.30;99.90
10089;DHT22;51898;49.864;8.550;2022-10-29T10:30:39;19.40;99.90
10089;DHT22;51898;49.864;8.550;2022-10-29T10:33:52;19.40;99.90
10089;DHT22;51898;49.864;8.550;2022-10-29T10:36:56;19.50;99.90
10089;DHT22;51898;49.864;8.550;2022-10-29T10:40:04;19.50;99.90
10089;DHT22;51898;49.864;8.550;2022-10-29T10:43:17;19.70;99.90
10089;DHT22;51898;49.864;8.550;2022-10-29T10:46:29;19.70;99.90
10089;DHT22;51898;49.864;8.550;2022-10-29T10:49:34;19.90;99.90
10089;DHT22;51898;49.864;8.550;2022-10-29T10:52:36;20.00;99.90
10089;DHT22;51898;49.864;8.550;2022-10-29T10:55:38;20.10;99.90
10089;DHT22;51898;49.864;8.550;2022-10-29T10:58:43;20.30;99.90
10089;DHT22;51898;49.864;8.550;2022-10-29T11:01:47;20.30;99.90
10089;DHT22;51898;49.864;8.550;2022-10-29T11:08:29;20.60;99.90
10089;DHT22;51898;49.864;8.550;2022-10-29T11:11:38;20.70;99.90
10089;DHT22;51898;49.864;8.550;2022-10-29T11:14:55;20.80;99.90
10089;DHT22;51898;49.864;8.550;2022-10-29T11:18:23;20.90;99.90
10089;DHT22;51898;49.864;8.550;2022-10-29T11:21:52;21.00;99.90
10089;DHT22;51898;49.864;8.550;2022-10-29T11:25:18;21.00;99.90
10089;DHT22;51898;49.864;8.550;2022-10-29T11:28:39;21.10;99.90
10089;DHT22;51898;49.864;8.550;2022-10-29T11:31:59;21.00;99.90
10089;DHT22;51898;49.864;8.550;2022-10-29T11:35:10;21.10;99.90
10089;DHT22;51898;49.864;8.550;2022-10-29T11:38:32;21.30;99.90
10089;DHT22;51898;49.864;8.550;2022-10-29T11:41:57;21.40;99.90
10089;DHT22;51898;49.864;8.550;2022-10-29T11:44:59;21.40;99.90
10089;DHT22;51898;49.864;8.550;2022-10-29T11:48:17;21.40;99.90
10089;DHT22;51898;49.864;8.550;2022-10-29T11:51:44;21.40;99.90
10089;DHT22;51898;49.864;8.550;2022-10-29T11:55:13;21.20;99.90
10089;DHT22;51898;49.864;8.550;2022-10-29T11:58:29;21.30;99.90
10089;DHT22;51898;49.864;8.550;2022-10-29T12:01:51;21.20;99.90
10089;DHT22;51898;49.864;8.550;2022-10-29T12:05:12;21.10;99.90
10089;DHT22;51898;49.864;8.550;2022-10-29T12:12:07;20.80;99.90
10089;DHT22;51898;49.864;8.550;2022-10-29T12:18:51;20.30;99.90
10089;DHT22;51898;49.864;8.550;2022-10-29T12:32:32;20.20;99.90
10089;DHT22;51898;49.864;8.550;2022-10-29T12:39:04;20.00;99.90
10089;DHT22;51898;49.864;8.550;2022-10-29T12:42:26;19.90;99.90
10089;DHT22;51898;49.864;8.550;2022-10-29T12:49:17;19.90;99.90
10089;DHT22;51898;49.864;8.550;2022-10-29T12:52:36;19.90;99.90
10089;DHT22;51898;49.864;8.550;2022-10-29T12:55:39;19.90;99.90
10089;DHT22;51898;49.864;8.550;2022-10-29T12:58:48;19.90;99.90
10089;DHT22;51898;49.864;8.550;2022-10-29T13:01:51;19.90;99.90
10089;DHT22;51898;49.864;8.550;2022-10-29T13:05:14;19.70;99.90
10089;DHT22;51898;49.864;8.550;2022-10-29T13:08:25;19.90;99.90
10089;DHT22;51898;49.864;8.550;2022-10-29T13:11:48;19.90;99.90
10089;DHT22;51898;49.864;8.550;2022-10-29T13:14:55;20.00;99.90
10089;DHT22;51898;49.864;8.550;2022-10-29T13:18:28;20.10;99.90
10089;DHT22;51898;49.864;8.550;2022-10-29T13:22:05;20.10;99.90
10089;DHT22;51898;49.864;8.550;2022-10-29T13:25:41;20.20;99.90
10089;DHT22;51898;49.864;8.550;2022-10-29T13:28:47;20.20;99.90
10089;DHT22;51898;49.864;8.550;2022-10-29T13:31:49;20.20;99.90
10089;DHT22;51898;49.864;8.550;2022-10-29T13:34:53;20.10;99.90
10089;DHT22;51898;49.864;8.550;2022-10-29T13:38:09;20.20;99.90
10089;DHT22;51898;49.864;8.550;2022-10-29T13:41:57;20.10;99.90
10089;DHT22;51898;49.864;8.550;2022-10-29T13:44:36;20.30;99.90
10089;DHT22;51898;49.864;8.550;2022-10-29T13:47:39;20.20;99.90
10089;DHT22;51898;49.864;8.550;2022-10-29T13:50:41;20.20;99.90
10089;DHT22;51898;49.864;8.550;2022-10-29T13:53:51;20.20;99.90
10089;DHT22;51898;49.864;8.550;2022-10-29T13:56:59;20.20;99.90
10089;DHT22;51898;49.864;8.550;2022-10-29T14:00:15;20.20;99.90
10089;DHT22;51898;49.864;8.550;2022-10-29T14:03:47;20.30;99.90
10089;DHT22;51898;49.864;8.550;2022-10-29T14:06:44;20.30;99.90
10089;DHT22;51898;49.864;8.550;2022-10-29T14:09:50;20.50;99.90
10089;DHT22;51898;49.864;8.550;2022-10-29T14:12:57;20.60;99.90
10089;DHT22;51898;49.864;8.550;2022-10-29T14:19:13;20.40;99.90
10089;DHT22;51898;49.864;8.550;2022-10-29T14:22:31;20.30;99.90
10089;DHT22;51898;49.864;8.550;2022-10-29T14:25:34;20.20;99.90
10089;DHT22;51898;49.864;8.550;2022-10-29T14:28:36;20.20;99.90
10089;DHT22;51898;49.864;8.550;2022-10-29T14:31:38;20.10;99.90
10089;DHT22;51898;49.864;8.550;2022-10-29T14:34:40;20.00;99.90
10089;DHT22;51898;49.864;8.550;2022-10-29T14:37:43;20.00;99.90
10089;DHT22;51898;49.864;8.550;2022-10-29T14:40:46;20.00;99.90
10089;DHT22;51898;49.864;8.550;2022-10-29T14:44:01;20.00;99.90
10089;DHT22;51898;49.864;8.550;2022-10-29T14:47:06;19.90;99.90
10089;DHT22;51898;49.864;8.550;2022-10-29T14:50:19;19.80;99.90
10089;DHT22;51898;49.864;8.550;2022-10-29T14:56:32;19.70;99.90
10089;DHT22;51898;49.864;8.550;2022-10-29T14:59:34;19.70;99.90
10089;DHT22;51898;49.864;8.550;2022-10-29T15:02:39;19.60;99.90
10089;DHT22;51898;49.864;8.550;2022-10-29T15:05:42;19.50;99.90
10089;DHT22;51898;49.864;8.550;2022-10-29T15:08:52;19.40;99.90
10089;DHT22;51898;49.864;8.550;2022-10-29T15:12:23;19.30;99.90
10089;DHT22;51898;49.864;8.550;2022-10-29T15:15:28;19.30;99.90
10089;DHT22;51898;49.864;8.550;2022-10-29T15:18:31;19.20;99.90
10089;DHT22;51898;49.864;8.550;2022-10-29T15:21:33;19.20;99.90
10089;DHT22;51898;49.864;8.550;2022-10-29T15:24:35;19.10;99.90
10089;DHT22;51898;49.864;8.550;2022-10-29T15:27:38;19.10;99.90
10089;DHT22;51898;49.864;8.550;2022-10-29T15:30:40;19.00;99.90
10089;DHT22;51898;49.864;8.550;2022-10-29T15:33:42;18.90;99.90
10089;DHT22;51898;49.864;8.550;2022-10-29T15:36:52;18.80;99.90
10089;DHT22;51898;49.864;8.550;2022-10-29T15:43:26;18.80;99.90
10089;DHT22;51898;49.864;8.550;2022-10-29T15:46:34;18.70;99.90
10089;DHT22;51898;49.864;8.550;2022-10-29T15:49:36;18.70;99.90
10089;DHT22;51898;49.864;8.550;2022-10-29T15:52:42;18.60;99.90
10089;DHT22;51898;49.864;8.550;2022-10-29T15:55:45;18.60;99.90
10089;DHT22;51898;49.864;8.550;2022-10-29T15:58:46;18.50;99.90
10089;DHT22;51898;49.864;8.550;2022-10-29T16:01:48;18.40;99.90
10089;DHT22;51898;49.864;8.550;2022-10-29T16:04:50;18.30;99.90
10089;DHT22;51898;49.864;8.550;2022-10-29T16:07:51;18.20;99.90
10089;DHT22;51898;49.864;8.550;2022-10-29T16:10:54;18.20;99.90
10089;DHT22;51898;49.864;8.550;2022-10-29T16:13:56;18.00;99.90
10089;DHT22;51898;49.864;8.550;2022-10-29T16:16:59;17.90;99.90
10089;DHT22;51898;49.864;8.550;2022-10-29T16:20:01;17.80;99.90
10089;DHT22;51898;49.864;8.550;2022-10-29T16:23:02;17.70;99.90
10089;DHT22;51898;49.864;8.550;2022-10-29T16:26:04;17.70;99.90
10089;DHT22;51898;49.864;8.550;2022-10-29T16:29:06;17.60;99.90
10089;DHT22;51898;49.864;8.550;2022-10-29T16:32:15;17.50;99.90
10089;DHT22;51898;49.864;8.550;2022-10-29T16:35:25;17.40;99.90
10089;DHT22;51898;49.864;8.550;2022-10-29T16:38:27;17.40;99.90
10089;DHT22;51898;49.864;8.550;2022-10-29T16:41:34;17.30;99.90
10089;DHT22;51898;49.864;8.550;2022-10-29T16:44:36;17.20;99.90
10089;DHT22;51898;49.864;8.550;2022-10-29T16:47:38;17.10;99.90
10089;DHT22;51898;49.864;8.550;2022-10-29T16:50:39;17.10;99.90
10089;DHT22;51898;49.864;8.550;2022-10-29T16:53:41;17.00;99.90
10089;DHT22;51898;49.864;8.550;2022-10-29T16:56:43;17.00;99.90
10089;DHT22;51898;49.864;8.550;2022-10-29T16:59:44;16.90;99.90
10089;DHT22;51898;49.864;8.550;2022-10-29T17:02:46;16.90;99.90
10089;DHT22;51898;49.864;8.550;2022-10-29T17:05:47;16.80;99.90
10089;DHT22;51898;49.864;8.550;2022-10-29T17:08:49;16.80;99.90
10089;DHT22;51898;49.864;8.550;2022-10-29T17:11:51;16.80;99.90
10089;DHT22;51898;49.864;8.550;2022-10-29T17:14:52;16.70;99.90
10089;DHT22;51898;49.864;8.550;2022-10-29T17:17:54;16.70;99.90
10089;DHT22;51898;49.864;8.550;2022-10-29T17:20:57;16.60;99.90
10089;DHT22;51898;49.864;8.550;2022-10-29T17:23:59;16.60;99.90
10089;DHT22;51898;49.864;8.550;2022-10-29T17:27:09;16.50;99.90
10089;DHT22;51898;49.864;8.550;2022-10-29T17:30:11;16.30;99.90
10089;DHT22;51898;49.864;8.550;2022-10-29T17:33:13;16.20;99.90
10089;DHT22;51898;49.864;8.550;2022-10-29T17:36:15;16.10;99.90
10089;DHT22;51898;49.864;8.550;2022-10-29T17:39:19;16.00;99.90
10089;DHT22;51898;49.864;8.550;2022-10-29T17:42:23;15.90;99.90
10089;DHT22;51898;49.864;8.550;2022-10-29T17:45:25;15.90;99.90
10089;DHT22;51898;49.864;8.550;2022-10-29T17:48:27;15.80;99.90
10089;DHT22;51898;49.864;8.550;2022-10-29T17:51:28;15.80;99.90
10089;DHT22;51898;49.864;8.550;2022-10-29T17:54:31;15.70;99.90
10089;DHT22;51898;49.864;8.550;2022-10-29T17:57:35;15.70;99.90
10089;DHT22;51898;49.864;8.550;2022-10-29T18:00:37;15.70;99.90
10089;DHT22;51898;49.864;8.550;2022-10-29T18:03:39;15.70;99.90
10089;DHT22;51898;49.864;8.550;2022-10-29T18:06:41;15.50;99.90
10089;DHT22;51898;49.864;8.550;2022-10-29T18:09:43;15.50;99.90
10089;DHT22;51898;49.864;8.550;2022-10-29T18:12:45;15.30;99.90
10089;DHT22;51898;49.864;8.550;2022-10-29T18:15:46;15.20;99.90
10089;DHT22;51898;49.864;8.550;2022-10-29T18:18:49;15.20;99.90
10089;DHT22;51898;49.864;8.550;2022-10-29T18:22:02;15.10;99.90
10089;DHT22;51898;49.864;8.550;2022-10-29T18:25:04;15.10;99.90
10089;DHT22;51898;49.864;8.550;2022-10-29T18:28:06;15.10;99.90
10089;DHT22;51898;49.864;8.550;2022-10-29T18:31:08;15.10;99.90
10089;DHT22;51898;49.864;8.550;2022-10-29T18:34:10;15.00;99.90
10089;DHT22;51898;49.864;8.550;2022-10-29T18:37:12;14.90;99.90
10089;DHT22;51898;49.864;8.550;2022-10-29T18:40:14;14.90;99.90
10089;DHT22;51898;49.864;8.550;2022-10-29T18:43:16;14.90;99.90
10089;DHT22;51898;49.864;8.550;2022-10-29T18:46:18;14.90;99.90
10089;DHT22;51898;49.864;8.550;2022-10-29T18:49:19;14.80;99.90
10089;DHT22;51898;49.864;8.550;2022-10-29T18:52:21;14.80;99.90
10089;DHT22;51898;49.864;8.550;2022-10-29T18:55:23;14.90;99.90
10089;DHT22;51898;49.864;8.550;2022-10-29T18:58:24;14.90;99.90
10089;DHT22;51898;49.864;8.550;2022-10-29T19:01:28;14.90;99.90
10089;DHT22;51898;49.864;8.550;2022-10-29T19:04:33;14.80;99.90
10089;DHT22;51898;49.864;8.550;2022-10-29T19:07:34;14.80;99.90
10089;DHT22;51898;49.864;8.550;2022-10-29T19:10:41;14.70;99.90
10089;DHT22;51898;49.864;8.550;2022-10-29T19:13:42;14.70;99.90
10089;DHT22;51898;49.864;8.550;2022-10-29T19:16:44;14.70;99.90
10089;DHT22;51898;49.864;8.550;2022-10-29T19:19:46;14.70;99.90
10089;DHT22;51898;49.864;8.550;2022-10-29T19:22:47;14.70;99.90
10089;DHT22;51898;49.864;8.550;2022-10-29T19:25:49;14.70;99.90
10089;DHT22;51898;49.864;8.550;2022-10-29T19:28:51;14.70;99.90
10089;DHT22;51898;49.864;8.550;2022-10-29T19:31:52;14.70;99.90
10089;DHT22;51898;49.864;8.550;2022-10-29T19:34:54;14.60;99.90
10089;DHT22;51898;49.864;8.550;2022-10-29T19:37:56;14.60;99.90
10089;DHT22;51898;49.864;8.550;2022-10-29T19:40:58;14.60;99.90
10089;DHT22;51898;49.864;8.550;2022-10-29T19:44:00;14.60;99.90
10089;DHT22;51898;49.864;8.550;2022-10-29T19:47:02;14.50;99.90
10089;DHT22;51898;49.864;8.550;2022-10-29T19:50:05;14.50;99.90
10089;DHT22;51898;49.864;8.550;2022-10-29T19:53:08;14.40;99.90
10089;DHT22;51898;49.864;8.550;2022-10-29T19:56:11;14.40;99.90
10089;DHT22;51898;49.864;8.550;2022-10-29T19:59:13;14.40;99.90
10089;DHT22;51898;49.864;8.550;2022-10-29T20:02:15;14.20;99.90
10089;DHT22;51898;49.864;8.550;2022-10-29T20:05:16;14.10;99.90
10089;DHT22;51898;49.864;8.550;2022-10-29T20:08:18;14.10;99.90
10089;DHT22;51898;49.864;8.550;2022-10-29T20:11:21;14.00;99.90
10089;DHT22;51898;49.864;8.550;2022-10-29T20:14:23;13.90;99.90
10089;DHT22;51898;49.864;8.550;2022-10-29T20:17:30;13.90;99.90
10089;DHT22;51898;49.864;8.550;2022-10-29T20:20:31;13.90;99.90
10089;DHT22;51898;49.864;8.550;2022-10-29T20:23:33;13.90;99.90
10089;DHT22;51898;49.864;8.550;2022-10-29T20:26:35;13.90;99.90
10089;DHT22;51898;49.864;8.550;2022-10-29T20:29:36;13.90;99.90
10089;DHT22;51898;49.864;8.550;2022-10-29T20:32:38;13.90;99.90
10089;DHT22;51898;49.864;8.550;2022-10-29T20:35:40;13.90;99.90
10089;DHT22;51898;49.864;8.550;2022-10-29T20:38:41;13.90;99.90
10089;DHT22;51898;49.864;8.550;2022-10-29T20:41:43;13.90;99.90
10089;DHT22;51898;49.864;8.550;2022-10-29T20:44:45;13.80;99.90
10089;DHT22;51898;49.864;8.550;2022-10-29T20:47:46;13.80;99.90
10089;DHT22;51898;49.864;8.550;2022-10-29T20:50:51;13.80;99.90
10089;DHT22;51898;49.864;8.550;2022-10-29T20:53:53;13.80;99.90
10089;DHT22;51898;49.864;8.550;2022-10-29T20:56:55;13.80;99.90
10089;DHT22;51898;49.864;8.550;2022-10-29T20:59:57;13.70;99.90
10089;DHT22;51898;49.864;8.550;2022-10-29T21:02:59;13.70;99.90
10089;DHT22;51898;49.864;8.550;2022-10-29T21:06:02;13.70;99.90
10089;DHT22;51898;49.864;8.550;2022-10-29T21:09:04;13.70;99.90
10089;DHT22;51898;49.864;8.550;2022-10-29T21:12:07;13.70;99.90